sensor_id;sensor_type;location;lat;lon;timestamp;P1;durP1;ratioP1;P2;durP2;ratioP2
1010;SDS011;494;48.744;10.106;2023-04-24T00:01:47;7.70;;;2.40;;
1010;SDS011;494;48.744;10.106;2023-04-24T00:04:17;7.27;;;2.10;;
1010;SDS011;494;48.744;10.106;2023-04-24T00:06:46;10.37;;;2.00;;
1010;SDS011;494;48.744;10.106;2023-04-24T00:09:17;7.40;;;2.50;;
1010;SDS011;494;48.744;10.106;2023-04-24T00:11:46;7.67;;;2.50;;
1010;SDS011;494;48.744;10.106;2023-04-24T00:14:15;8.17;;;2.27;;
1010;SDS011;494;48.744;10.106;2023-04-24T00:16:46;7.20;;;2.07;;
1010;SDS011;494;48.744;10.106;2023-04-24T00:19:15;7.77;;;2.33;;
1010;SDS011;494;48.744;10.106;2023-04-24T00:21:44;7.60;;;2.47;;
1010;SDS011;494;48.744;10.106;2023-04-24T00:24:12;8.20;;;2.20;;
1010;SDS011;494;48.744;10.106;2023-04-24T00:26:41;8.13;;;2.47;;
1010;SDS011;494;48.744;10.106;2023-04-24T00:29:10;8.10;;;1.97;;
1010;SDS011;494;48.744;10.106;2023-04-24T00:31:48;8.00;;;2.30;;
1010;SDS011;494;48.744;10.106;2023-04-24T00:34:17;8.57;;;2.67;;
1010;SDS011;494;48.744;10.106;2023-04-24T00:36:47;13.03;;;2.70;;
1010;SDS011;494;48.744;10.106;2023-04-24T00:39:18;8.07;;;2.40;;
1010;SDS011;494;48.744;10.106;2023-04-24T00:41:47;9.33;;;3.70;;
1010;SDS011;494;48.744;10.106;2023-04-24T00:44:17;8.67;;;2.33;;
1010;SDS011;494;48.744;10.106;2023-04-24T00:46:49;7.73;;;2.00;;
1010;SDS011;494;48.744;10.106;2023-04-24T00:49:21;8.33;;;2.30;;
1010;SDS011;494;48.744;10.106;2023-04-24T00:51:50;7.90;;;2.93;;
1010;SDS011;494;48.744;10.106;2023-04-24T00:54:21;8.37;;;2.40;;
1010;SDS011;494;48.744;10.106;2023-04-24T00:56:49;10.40;;;2.00;;
1010;SDS011;494;48.744;10.106;2023-04-24T00:59:19;9.20;;;1.87;;
1010;SDS011;494;48.744;10.106;2023-04-24T01:01:49;10.00;;;2.13;;
1010;SDS011;494;48.744;10.106;2023-04-24T01:04:19;9.53;;;1.90;;
1010;SDS011;494;48.744;10.106;2023-04-24T01:06:49;7.60;;;1.60;;
1010;SDS011;494;48.744;10.106;2023-04-24T01:09:19;7.70;;;2.10;;
1010;SDS011;494;48.744;10.106;2023-04-24T01:11:50;9.67;;;1.90;;
1010;SDS011;494;48.744;10.106;2023-04-24T01:14:20;7.10;;;1.90;;
1010;SDS011;494;48.744;10.106;2023-04-24T01:16:50;9.17;;;1.97;;
1010;SDS011;494;48.744;10.106;2023-04-24T01:19:19;10.33;;;2.00;;
1010;SDS011;494;48.744;10.106;2023-04-24T01:21:48;8.00;;;2.10;;
1010;SDS011;494;48.744;10.106;2023-04-24T01:24:23;10.60;;;2.10;;
1010;SDS011;494;48.744;10.106;2023-04-24T01:26:55;9.23;;;2.00;;
1010;SDS011;494;48.744;10.106;2023-04-24T01:29:23;8.93;;;1.97;;
1010;SDS011;494;48.744;10.106;2023-04-24T01:31:53;7.90;;;1.97;;
1010;SDS011;494;48.744;10.106;2023-04-24T01:34:24;8.87;;;1.93;;
1010;SDS011;494;48.744;10.106;2023-04-24T01:36:54;10.43;;;2.20;;
1010;SDS011;494;48.744;10.106;2023-04-24T01:39:25;9.57;;;1.73;;
1010;SDS011;494;48.744;10.106;2023-04-24T01:41:55;7.63;;;2.20;;
1010;SDS011;494;48.744;10.106;2023-04-24T01:44:24;7.40;;;1.80;;
1010;SDS011;494;48.744;10.106;2023-04-24T01:46:54;8.40;;;2.37;;
1010;SDS011;494;48.744;10.106;2023-04-24T01:49:23;7.23;;;2.03;;
1010;SDS011;494;48.744;10.106;2023-04-24T01:51:53;9.83;;;1.87;;
1010;SDS011;494;48.744;10.106;2023-04-24T01:54:22;7.90;;;1.83;;
1010;SDS011;494;48.744;10.106;2023-04-24T01:56:53;7.60;;;1.90;;
1010;SDS011;494;48.744;10.106;2023-04-24T01:59:21;6.73;;;1.80;;
1010;SDS011;494;48.744;10.106;2023-04-24T02:01:53;11.30;;;2.90;;
1010;SDS011;494;48.744;10.106;2023-04-24T02:04:22;11.40;;;4.50;;
1010;SDS011;494;48.744;10.106;2023-04-24T02:06:55;10.60;;;3.90;;
1010;SDS011;494;48.744;10.106;2023-04-24T02:09:26;8.43;;;2.57;;
1010;SDS011;494;48.744;10.106;2023-04-24T02:11:57;7.47;;;1.83;;
1010;SDS011;494;48.744;10.106;2023-04-24T02:14:27;11.70;;;1.70;;
1010;SDS011;494;48.744;10.106;2023-04-24T02:16:55;7.53;;;2.33;;
1010;SDS011;494;48.744;10.106;2023-04-24T02:19:24;8.03;;;2.00;;
1010;SDS011;494;48.744;10.106;2023-04-24T02:21:53;8.73;;;1.90;;
1010;SDS011;494;48.744;10.106;2023-04-24T02:24:21;8.83;;;2.30;;
1010;SDS011;494;48.744;10.106;2023-04-24T02:26:52;9.73;;;2.83;;
1010;SDS011;494;48.744;10.106;2023-04-24T02:29:21;7.77;;;2.10;;
1010;SDS011;494;48.744;10.106;2023-04-24T02:31:50;7.60;;;2.20;;
1010;SDS011;494;48.744;10.106;2023-04-24T02:34:19;10.07;;;2.30;;
1010;SDS011;494;48.744;10.106;2023-04-24T02:36:47;8.20;;;2.27;;
1010;SDS011;494;48.744;10.106;2023-04-24T02:39:16;8.77;;;2.20;;
1010;SDS011;494;48.744;10.106;2023-04-24T02:41:45;9.70;;;2.40;;
1010;SDS011;494;48.744;10.106;2023-04-24T02:44:16;8.50;;;2.23;;
1010;SDS011;494;48.744;10.106;2023-04-24T02:46:45;8.87;;;2.10;;
1010;SDS011;494;48.744;10.106;2023-04-24T02:49:13;7.80;;;2.03;;
1010;SDS011;494;48.744;10.106;2023-04-24T02:51:43;7.50;;;1.90;;
1010;SDS011;494;48.744;10.106;2023-04-24T02:54:12;10.87;;;2.13;;
1010;SDS011;494;48.744;10.106;2023-04-24T02:56:41;8.70;;;2.03;;
1010;SDS011;494;48.744;10.106;2023-04-24T02:59:09;8.10;;;2.10;;
1010;SDS011;494;48.744;10.106;2023-04-24T03:01:39;8.00;;;2.10;;
1010;SDS011;494;48.744;10.106;2023-04-24T03:04:08;7.10;;;2.00;;
1010;SDS011;494;48.744;10.106;2023-04-24T03:06:38;7.83;;;2.10;;
1010;SDS011;494;48.744;10.106;2023-04-24T03:09:07;8.60;;;2.30;;
1010;SDS011;494;48.744;10.106;2023-04-24T03:11:36;8.27;;;2.10;;
1010;SDS011;494;48.744;10.106;2023-04-24T03:14:06;7.87;;;2.40;;
1010;SDS011;494;48.744;10.106;2023-04-24T03:16:34;8.13;;;2.23;;
1010;SDS011;494;48.744;10.106;2023-04-24T03:19:05;7.97;;;2.40;;
1010;SDS011;494;48.744;10.106;2023-04-24T03:21:34;7.20;;;2.20;;
1010;SDS011;494;48.744;10.106;2023-04-24T03:24:07;7.83;;;2.10;;
1010;SDS011;494;48.744;10.106;2023-04-24T03:26:36;8.60;;;2.40;;
1010;SDS011;494;48.744;10.106;2023-04-24T03:29:04;7.80;;;2.37;;
1010;SDS011;494;48.744;10.106;2023-04-24T03:31:33;11.20;;;2.40;;
1010;SDS011;494;48.744;10.106;2023-04-24T03:34:02;8.30;;;1.87;;
1010;SDS011;494;48.744;10.106;2023-04-24T03:36:33;8.80;;;2.67;;
1010;SDS011;494;48.744;10.106;2023-04-24T03:39:02;10.10;;;2.20;;
1010;SDS011;494;48.744;10.106;2023-04-24T03:41:30;8.43;;;2.40;;
1010;SDS011;494;48.744;10.106;2023-04-24T03:44:00;8.90;;;2.57;;
1010;SDS011;494;48.744;10.106;2023-04-24T03:46:29;10.57;;;2.60;;
1010;SDS011;494;48.744;10.106;2023-04-24T03:48:57;12.60;;;2.70;;
1010;SDS011;494;48.744;10.106;2023-04-24T03:51:28;7.27;;;2.37;;
1010;SDS011;494;48.744;10.106;2023-04-24T03:53:58;8.67;;;2.17;;
1010;SDS011;494;48.744;10.106;2023-04-24T03:56:27;9.70;;;2.33;;
1010;SDS011;494;48.744;10.106;2023-04-24T03:58:56;8.60;;;2.33;;
1010;SDS011;494;48.744;10.106;2023-04-24T04:01:25;7.80;;;2.10;;
1010;SDS011;494;48.744;10.106;2023-04-24T04:03:57;7.70;;;2.13;;
1010;SDS011;494;48.744;10.106;2023-04-24T04:06:28;8.60;;;2.40;;
1010;SDS011;494;48.744;10.106;2023-04-24T04:08:58;8.33;;;2.20;;
1010;SDS011;494;48.744;10.106;2023-04-24T04:11:27;8.40;;;2.23;;
1010;SDS011;494;48.744;10.106;2023-04-24T04:13:55;10.07;;;2.23;;
1010;SDS011;494;48.744;10.106;2023-04-24T04:16:25;8.50;;;2.63;;
1010;SDS011;494;48.744;10.106;2023-04-24T04:18:54;9.33;;;2.17;;
1010;SDS011;494;48.744;10.106;2023-04-24T04:21:23;8.63;;;2.50;;
1010;SDS011;494;48.744;10.106;2023-04-24T04:23:54;11.00;;;2.63;;
1010;SDS011;494;48.744;10.106;2023-04-24T04:26:23;11.13;;;2.77;;
1010;SDS011;494;48.744;10.106;2023-04-24T04:28:52;9.07;;;3.00;;
1010;SDS011;494;48.744;10.106;2023-04-24T04:31:20;11.17;;;2.90;;
1010;SDS011;494;48.744;10.106;2023-04-24T04:33:49;7.90;;;2.60;;
1010;SDS011;494;48.744;10.106;2023-04-24T04:36:18;14.63;;;3.33;;
1010;SDS011;494;48.744;10.106;2023-04-24T04:38:48;9.00;;;2.93;;
1010;SDS011;494;48.744;10.106;2023-04-24T04:41:18;11.50;;;3.00;;
1010;SDS011;494;48.744;10.106;2023-04-24T04:43:47;10.13;;;3.17;;
1010;SDS011;494;48.744;10.106;2023-04-24T04:46:17;8.80;;;3.10;;
1010;SDS011;494;48.744;10.106;2023-04-24T04:48:46;8.00;;;2.60;;
1010;SDS011;494;48.744;10.106;2023-04-24T04:51:15;9.50;;;3.10;;
1010;SDS011;494;48.744;10.106;2023-04-24T04:53:43;11.80;;;2.80;;
1010;SDS011;494;48.744;10.106;2023-04-24T04:56:12;9.07;;;3.07;;
1010;SDS011;494;48.744;10.106;2023-04-24T04:58:43;8.40;;;2.87;;
1010;SDS011;494;48.744;10.106;2023-04-24T05:01:12;9.13;;;3.53;;
1010;SDS011;494;48.744;10.106;2023-04-24T05:03:42;10.67;;;3.27;;
1010;SDS011;494;48.744;10.106;2023-04-24T05:06:12;9.33;;;3.53;;
1010;SDS011;494;48.744;10.106;2023-04-24T05:08:45;9.00;;;3.40;;
1010;SDS011;494;48.744;10.106;2023-04-24T05:11:15;14.60;;;3.40;;
1010;SDS011;494;48.744;10.106;2023-04-24T05:13:46;11.50;;;3.40;;
1010;SDS011;494;48.744;10.106;2023-04-24T05:16:17;8.73;;;3.00;;
1010;SDS011;494;48.744;10.106;2023-04-24T05:18:46;9.63;;;3.00;;
1010;SDS011;494;48.744;10.106;2023-04-24T05:21:15;11.07;;;3.17;;
1010;SDS011;494;48.744;10.106;2023-04-24T05:23:44;9.80;;;3.10;;
1010;SDS011;494;48.744;10.106;2023-04-24T05:26:13;9.90;;;3.10;;
1010;SDS011;494;48.744;10.106;2023-04-24T05:28:47;9.60;;;3.00;;
1010;SDS011;494;48.744;10.106;2023-04-24T05:31:19;8.47;;;2.57;;
1010;SDS011;494;48.744;10.106;2023-04-24T05:33:48;8.00;;;2.70;;
1010;SDS011;494;48.744;10.106;2023-04-24T05:36:17;9.40;;;3.00;;
1010;SDS011;494;48.744;10.106;2023-04-24T05:38:46;15.13;;;2.83;;
1010;SDS011;494;48.744;10.106;2023-04-24T05:41:15;8.03;;;2.40;;
1010;SDS011;494;48.744;10.106;2023-04-24T05:43:43;9.87;;;2.40;;
1010;SDS011;494;48.744;10.106;2023-04-24T05:46:14;8.83;;;2.00;;
1010;SDS011;494;48.744;10.106;2023-04-24T05:48:43;7.90;;;2.23;;
1010;SDS011;494;48.744;10.106;2023-04-24T05:51:13;12.63;;;3.13;;
1010;SDS011;494;48.744;10.106;2023-04-24T05:53:42;9.97;;;3.47;;
1010;SDS011;494;48.744;10.106;2023-04-24T05:56:12;8.10;;;3.00;;
1010;SDS011;494;48.744;10.106;2023-04-24T05:58:43;8.50;;;3.60;;
1010;SDS011;494;48.744;10.106;2023-04-24T06:01:16;11.03;;;3.40;;
1010;SDS011;494;48.744;10.106;2023-04-24T06:03:48;8.90;;;3.40;;
1010;SDS011;494;48.744;10.106;2023-04-24T06:06:18;10.00;;;3.50;;
1010;SDS011;494;48.744;10.106;2023-04-24T06:08:48;8.47;;;3.10;;
1010;SDS011;494;48.744;10.106;2023-04-24T06:11:18;9.07;;;3.53;;
1010;SDS011;494;48.744;10.106;2023-04-24T06:13:49;10.23;;;3.93;;
1010;SDS011;494;48.744;10.106;2023-04-24T06:19:06;9.33;;;3.87;;
1010;SDS011;494;48.744;10.106;2023-04-24T06:21:39;8.33;;;3.40;;
1010;SDS011;494;48.744;10.106;2023-04-24T06:25:11;8.23;;;3.20;;
1010;SDS011;494;48.744;10.106;2023-04-24T06:27:48;10.27;;;3.70;;
1010;SDS011;494;48.744;10.106;2023-04-24T06:30:30;10.47;;;4.10;;
1010;SDS011;494;48.744;10.106;2023-04-24T06:33:02;9.10;;;3.33;;
1010;SDS011;494;48.744;10.106;2023-04-24T06:35:46;9.03;;;3.87;;
1010;SDS011;494;48.744;10.106;2023-04-24T06:38:14;10.53;;;4.03;;
1010;SDS011;494;48.744;10.106;2023-04-24T06:40:44;10.40;;;4.10;;
1010;SDS011;494;48.744;10.106;2023-04-24T06:43:14;10.40;;;3.90;;
1010;SDS011;494;48.744;10.106;2023-04-24T06:45:46;8.80;;;3.37;;
1010;SDS011;494;48.744;10.106;2023-04-24T06:48:17;10.27;;;4.00;;
1010;SDS011;494;48.744;10.106;2023-04-24T06:50:46;8.70;;;3.50;;
1010;SDS011;494;48.744;10.106;2023-04-24T06:53:15;9.47;;;3.80;;
1010;SDS011;494;48.744;10.106;2023-04-24T06:55:46;8.87;;;3.87;;
1010;SDS011;494;48.744;10.106;2023-04-24T06:58:24;11.50;;;3.77;;
1010;SDS011;494;48.744;10.106;2023-04-24T07:00:55;9.53;;;3.73;;
1010;SDS011;494;48.744;10.106;2023-04-24T07:03:27;9.30;;;4.10;;
1010;SDS011;494;48.744;10.106;2023-04-24T07:05:59;8.97;;;4.00;;
1010;SDS011;494;48.744;10.106;2023-04-24T07:08:34;11.13;;;3.90;;
1010;SDS011;494;48.744;10.106;2023-04-24T07:11:07;9.23;;;4.10;;
1010;SDS011;494;48.744;10.106;2023-04-24T07:13:38;13.27;;;4.77;;
1010;SDS011;494;48.744;10.106;2023-04-24T07:16:08;10.37;;;3.73;;
1010;SDS011;494;48.744;10.106;2023-04-24T07:18:40;11.80;;;4.40;;
1010;SDS011;494;48.744;10.106;2023-04-24T07:21:09;8.83;;;4.03;;
1010;SDS011;494;48.744;10.106;2023-04-24T07:23:38;9.57;;;4.20;;
1010;SDS011;494;48.744;10.106;2023-04-24T07:26:07;8.83;;;3.90;;
1010;SDS011;494;48.744;10.106;2023-04-24T07:28:37;10.87;;;4.10;;
1010;SDS011;494;48.744;10.106;2023-04-24T07:31:06;9.20;;;4.13;;
1010;SDS011;494;48.744;10.106;2023-04-24T07:33:35;10.10;;;4.20;;
1010;SDS011;494;48.744;10.106;2023-04-24T07:36:05;10.30;;;4.63;;
1010;SDS011;494;48.744;10.106;2023-04-24T07:38:35;12.03;;;4.87;;
1010;SDS011;494;48.744;10.106;2023-04-24T07:41:03;10.33;;;4.20;;
1010;SDS011;494;48.744;10.106;2023-04-24T07:43:32;11.23;;;4.30;;
1010;SDS011;494;48.744;10.106;2023-04-24T07:46:02;9.67;;;4.10;;
1010;SDS011;494;48.744;10.106;2023-04-24T07:48:34;9.73;;;4.20;;
1010;SDS011;494;48.744;10.106;2023-04-24T07:51:03;8.80;;;3.70;;
1010;SDS011;494;48.744;10.106;2023-04-24T07:53:36;9.43;;;4.17;;
1010;SDS011;494;48.744;10.106;2023-04-24T07:56:06;10.27;;;4.27;;
1010;SDS011;494;48.744;10.106;2023-04-24T07:58:35;10.07;;;4.27;;
1010;SDS011;494;48.744;10.106;2023-04-24T08:01:04;9.47;;;3.80;;
1010;SDS011;494;48.744;10.106;2023-04-24T08:03:33;8.83;;;3.70;;
1010;SDS011;494;48.744;10.106;2023-04-24T08:06:03;9.50;;;4.20;;
1010;SDS011;494;48.744;10.106;2023-04-24T08:08:35;10.73;;;4.67;;
1010;SDS011;494;48.744;10.106;2023-04-24T08:11:04;9.67;;;4.57;;
1010;SDS011;494;48.744;10.106;2023-04-24T08:13:32;11.23;;;4.23;;
1010;SDS011;494;48.744;10.106;2023-04-24T08:16:02;8.70;;;4.07;;
1010;SDS011;494;48.744;10.106;2023-04-24T08:18:30;11.03;;;3.80;;
1010;SDS011;494;48.744;10.106;2023-04-24T08:21:01;9.97;;;5.43;;
1010;SDS011;494;48.744;10.106;2023-04-24T08:23:31;9.60;;;5.07;;
1010;SDS011;494;48.744;10.106;2023-04-24T08:26:00;8.73;;;3.90;;
1010;SDS011;494;48.744;10.106;2023-04-24T08:28:29;9.63;;;3.70;;
1010;SDS011;494;48.744;10.106;2023-04-24T08:30:58;8.87;;;3.33;;
1010;SDS011;494;48.744;10.106;2023-04-24T08:33:27;10.90;;;3.37;;
1010;SDS011;494;48.744;10.106;2023-04-24T08:36:01;8.13;;;3.23;;
1010;SDS011;494;48.744;10.106;2023-04-24T08:38:32;8.50;;;3.33;;
1010;SDS011;494;48.744;10.106;2023-04-24T08:41:01;9.53;;;3.30;;
1010;SDS011;494;48.744;10.106;2023-04-24T08:43:31;9.20;;;4.00;;
1010;SDS011;494;48.744;10.106;2023-04-24T08:46:04;7.87;;;3.13;;
1010;SDS011;494;48.744;10.106;2023-04-24T08:48:37;7.90;;;2.70;;
1010;SDS011;494;48.744;10.106;2023-04-24T08:51:07;7.53;;;2.80;;
1010;SDS011;494;48.744;10.106;2023-04-24T08:53:39;7.43;;;2.60;;
1010;SDS011;494;48.744;10.106;2023-04-24T08:56:09;8.17;;;2.67;;
1010;SDS011;494;48.744;10.106;2023-04-24T08:58:40;7.70;;;2.93;;
1010;SDS011;494;48.744;10.106;2023-04-24T09:01:11;8.40;;;3.50;;
1010;SDS011;494;48.744;10.106;2023-04-24T09:03:41;9.13;;;3.20;;
1010;SDS011;494;48.744;10.106;2023-04-24T09:06:12;9.40;;;3.50;;
1010;SDS011;494;48.744;10.106;2023-04-24T09:08:42;9.90;;;3.83;;
1010;SDS011;494;48.744;10.106;2023-04-24T09:11:14;11.27;;;5.20;;
1010;SDS011;494;48.744;10.106;2023-04-24T09:13:45;12.23;;;4.20;;
1010;SDS011;494;48.744;10.106;2023-04-24T09:16:19;8.87;;;4.67;;
1010;SDS011;494;48.744;10.106;2023-04-24T09:18:49;10.50;;;4.70;;
1010;SDS011;494;48.744;10.106;2023-04-24T09:21:20;11.37;;;4.07;;
1010;SDS011;494;48.744;10.106;2023-04-24T09:24:07;8.70;;;4.10;;
1010;SDS011;494;48.744;10.106;2023-04-24T09:26:46;10.40;;;5.37;;
1010;SDS011;494;48.744;10.106;2023-04-24T09:29:15;10.20;;;4.90;;
1010;SDS011;494;48.744;10.106;2023-04-24T09:31:45;11.20;;;7.13;;
1010;SDS011;494;48.744;10.106;2023-04-24T09:34:18;8.80;;;4.13;;
1010;SDS011;494;48.744;10.106;2023-04-24T09:36:50;10.83;;;5.07;;
1010;SDS011;494;48.744;10.106;2023-04-24T09:39:22;11.40;;;5.30;;
1010;SDS011;494;48.744;10.106;2023-04-24T09:41:52;10.50;;;8.10;;
1010;SDS011;494;48.744;10.106;2023-04-24T09:44:24;11.40;;;5.77;;
1010;SDS011;494;48.744;10.106;2023-04-24T09:46:55;8.50;;;4.10;;
1010;SDS011;494;48.744;10.106;2023-04-24T09:49:26;8.60;;;4.17;;
1010;SDS011;494;48.744;10.106;2023-04-24T09:52:03;9.83;;;4.53;;
1010;SDS011;494;48.744;10.106;2023-04-24T09:54:34;9.23;;;4.37;;
1010;SDS011;494;48.744;10.106;2023-04-24T09:57:04;7.60;;;3.00;;
1010;SDS011;494;48.744;10.106;2023-04-24T09:59:35;7.80;;;2.90;;
1010;SDS011;494;48.744;10.106;2023-04-24T10:02:17;8.00;;;2.77;;
1010;SDS011;494;48.744;10.106;2023-04-24T10:04:54;8.27;;;2.60;;
1010;SDS011;494;48.744;10.106;2023-04-24T10:07:26;8.80;;;2.80;;
1010;SDS011;494;48.744;10.106;2023-04-24T10:09:57;9.00;;;3.50;;
1010;SDS011;494;48.744;10.106;2023-04-24T10:12:27;8.97;;;4.40;;
1010;SDS011;494;48.744;10.106;2023-04-24T10:14:57;8.03;;;2.90;;
1010;SDS011;494;48.744;10.106;2023-04-24T10:17:28;9.83;;;3.20;;
1010;SDS011;494;48.744;10.106;2023-04-24T10:19:59;11.20;;;3.33;;
1010;SDS011;494;48.744;10.106;2023-04-24T10:22:29;8.70;;;3.10;;
1010;SDS011;494;48.744;10.106;2023-04-24T10:25:05;8.57;;;3.53;;
1010;SDS011;494;48.744;10.106;2023-04-24T10:27:36;9.80;;;3.57;;
1010;SDS011;494;48.744;10.106;2023-04-24T10:30:10;9.37;;;3.10;;
1010;SDS011;494;48.744;10.106;2023-04-24T10:32:44;8.53;;;3.20;;
1010;SDS011;494;48.744;10.106;2023-04-24T10:35:16;8.90;;;4.17;;
1010;SDS011;494;48.744;10.106;2023-04-24T10:37:50;10.07;;;5.00;;
1010;SDS011;494;48.744;10.106;2023-04-24T10:40:31;11.97;;;5.30;;
1010;SDS011;494;48.744;10.106;2023-04-24T10:43:05;10.30;;;4.73;;
1010;SDS011;494;48.744;10.106;2023-04-24T10:45:39;10.47;;;2.90;;
1010;SDS011;494;48.744;10.106;2023-04-24T10:48:10;7.70;;;2.53;;
1010;SDS011;494;48.744;10.106;2023-04-24T10:50:44;11.03;;;2.53;;
1010;SDS011;494;48.744;10.106;2023-04-24T10:53:16;9.23;;;2.50;;
1010;SDS011;494;48.744;10.106;2023-04-24T10:55:48;7.97;;;2.40;;
1010;SDS011;494;48.744;10.106;2023-04-24T10:58:21;7.80;;;2.23;;
1010;SDS011;494;48.744;10.106;2023-04-24T11:00:57;8.13;;;2.10;;
1010;SDS011;494;48.744;10.106;2023-04-24T11:03:29;7.93;;;2.67;;
1010;SDS011;494;48.744;10.106;2023-04-24T11:06:02;9.10;;;2.73;;
1010;SDS011;494;48.744;10.106;2023-04-24T11:08:37;8.57;;;2.43;;
1010;SDS011;494;48.744;10.106;2023-04-24T11:11:12;7.60;;;2.20;;
1010;SDS011;494;48.744;10.106;2023-04-24T11:16:35;8.10;;;3.20;;
1010;SDS011;494;48.744;10.106;2023-04-24T11:19:18;9.63;;;5.10;;
1010;SDS011;494;48.744;10.106;2023-04-24T11:21:55;10.33;;;3.17;;
1010;SDS011;494;48.744;10.106;2023-04-24T11:24:32;10.00;;;4.50;;
1010;SDS011;494;48.744;10.106;2023-04-24T11:27:12;11.63;;;6.10;;
1010;SDS011;494;48.744;10.106;2023-04-24T11:29:44;10.57;;;6.50;;
1010;SDS011;494;48.744;10.106;2023-04-24T11:32:23;11.17;;;5.97;;
1010;SDS011;494;48.744;10.106;2023-04-24T11:34:57;10.20;;;5.23;;
1010;SDS011;494;48.744;10.106;2023-04-24T11:37:29;8.00;;;2.90;;
1010;SDS011;494;48.744;10.106;2023-04-24T11:40:04;9.37;;;5.47;;
1010;SDS011;494;48.744;10.106;2023-04-24T11:42:42;9.57;;;6.20;;
1010;SDS011;494;48.744;10.106;2023-04-24T11:45:13;9.90;;;5.80;;
1010;SDS011;494;48.744;10.106;2023-04-24T11:47:44;9.20;;;6.07;;
1010;SDS011;494;48.744;10.106;2023-04-24T11:50:14;10.20;;;6.77;;
1010;SDS011;494;48.744;10.106;2023-04-24T11:52:45;12.33;;;7.67;;
1010;SDS011;494;48.744;10.106;2023-04-24T11:55:25;9.57;;;6.27;;
1010;SDS011;494;48.744;10.106;2023-04-24T11:57:57;11.00;;;5.70;;
1010;SDS011;494;48.744;10.106;2023-04-24T12:00:28;9.43;;;6.60;;
1010;SDS011;494;48.744;10.106;2023-04-24T12:03:04;11.40;;;7.40;;
1010;SDS011;494;48.744;10.106;2023-04-24T12:05:35;12.77;;;8.60;;
1010;SDS011;494;48.744;10.106;2023-04-24T12:08:05;11.40;;;7.50;;
1010;SDS011;494;48.744;10.106;2023-04-24T12:10:34;9.53;;;6.70;;
1010;SDS011;494;48.744;10.106;2023-04-24T12:13:08;9.00;;;6.03;;
1010;SDS011;494;48.744;10.106;2023-04-24T12:15:39;9.60;;;6.20;;
1010;SDS011;494;48.744;10.106;2023-04-24T12:18:08;9.10;;;6.20;;
1010;SDS011;494;48.744;10.106;2023-04-24T12:20:40;9.40;;;7.07;;
1010;SDS011;494;48.744;10.106;2023-04-24T12:23:09;9.70;;;7.20;;
1010;SDS011;494;48.744;10.106;2023-04-24T12:25:38;10.20;;;7.90;;
1010;SDS011;494;48.744;10.106;2023-04-24T12:28:12;11.00;;;7.77;;
1010;SDS011;494;48.744;10.106;2023-04-24T12:30:41;9.50;;;6.40;;
1010;SDS011;494;48.744;10.106;2023-04-24T12:33:12;9.23;;;6.30;;
1010;SDS011;494;48.744;10.106;2023-04-24T12:35:45;7.63;;;2.80;;
1010;SDS011;494;48.744;10.106;2023-04-24T12:38:22;9.83;;;2.57;;
1010;SDS011;494;48.744;10.106;2023-04-24T12:41:01;8.80;;;2.50;;
1010;SDS011;494;48.744;10.106;2023-04-24T12:43:34;8.10;;;3.27;;
1010;SDS011;494;48.744;10.106;2023-04-24T12:46:04;9.23;;;2.73;;
1010;SDS011;494;48.744;10.106;2023-04-24T12:48:33;8.10;;;3.00;;
1010;SDS011;494;48.744;10.106;2023-04-24T12:51:01;32.63;;;9.93;;
1010;SDS011;494;48.744;10.106;2023-04-24T12:53:30;8.20;;;3.20;;
1010;SDS011;494;48.744;10.106;2023-04-24T12:55:59;9.43;;;4.40;;
1010;SDS011;494;48.744;10.106;2023-04-24T12:58:27;15.13;;;9.40;;
1010;SDS011;494;48.744;10.106;2023-04-24T13:00:57;12.40;;;7.77;;
1010;SDS011;494;48.744;10.106;2023-04-24T13:03:27;10.00;;;7.00;;
1010;SDS011;494;48.744;10.106;2023-04-24T13:05:56;10.30;;;7.60;;
1010;SDS011;494;48.744;10.106;2023-04-24T13:08:25;11.80;;;7.00;;
1010;SDS011;494;48.744;10.106;2023-04-24T13:10:53;9.50;;;6.33;;
1010;SDS011;494;48.744;10.106;2023-04-24T13:13:23;10.60;;;7.37;;
1010;SDS011;494;48.744;10.106;2023-04-24T13:16:08;9.80;;;6.30;;
1010;SDS011;494;48.744;10.106;2023-04-24T13:18:37;9.73;;;4.87;;
1010;SDS011;494;48.744;10.106;2023-04-24T13:21:06;11.13;;;6.20;;
1010;SDS011;494;48.744;10.106;2023-04-24T13:23:36;9.60;;;6.33;;
1010;SDS011;494;48.744;10.106;2023-04-24T13:26:04;8.63;;;4.80;;
1010;SDS011;494;48.744;10.106;2023-04-24T13:28:33;11.37;;;6.40;;
1010;SDS011;494;48.744;10.106;2023-04-24T13:31:04;9.07;;;5.57;;
1010;SDS011;494;48.744;10.106;2023-04-24T13:33:38;11.27;;;5.83;;
1010;SDS011;494;48.744;10.106;2023-04-24T13:36:07;9.27;;;4.43;;
1010;SDS011;494;48.744;10.106;2023-04-24T13:38:36;9.57;;;6.37;;
1010;SDS011;494;48.744;10.106;2023-04-24T13:41:05;9.10;;;6.30;;
1010;SDS011;494;48.744;10.106;2023-04-24T13:43:35;9.50;;;6.60;;
1010;SDS011;494;48.744;10.106;2023-04-24T13:46:04;10.20;;;7.00;;
1010;SDS011;494;48.744;10.106;2023-04-24T13:48:33;9.53;;;5.70;;
1010;SDS011;494;48.744;10.106;2023-04-24T13:51:04;9.60;;;5.20;;
1010;SDS011;494;48.744;10.106;2023-04-24T13:53:32;8.80;;;5.20;;
1010;SDS011;494;48.744;10.106;2023-04-24T13:56:04;8.93;;;4.87;;
1010;SDS011;494;48.744;10.106;2023-04-24T13:58:34;8.47;;;4.60;;
1010;SDS011;494;48.744;10.106;2023-04-24T14:01:07;8.87;;;5.40;;
1010;SDS011;494;48.744;10.106;2023-04-24T14:03:36;9.50;;;5.50;;
1010;SDS011;494;48.744;10.106;2023-04-24T14:06:07;9.33;;;6.20;;
1010;SDS011;494;48.744;10.106;2023-04-24T14:08:36;9.83;;;5.70;;
1010;SDS011;494;48.744;10.106;2023-04-24T14:11:05;8.40;;;4.60;;
1010;SDS011;494;48.744;10.106;2023-04-24T14:13:35;9.20;;;5.43;;
1010;SDS011;494;48.744;10.106;2023-04-24T14:16:05;9.23;;;4.53;;
1010;SDS011;494;48.744;10.106;2023-04-24T14:18:35;8.60;;;3.83;;
1010;SDS011;494;48.744;10.106;2023-04-24T14:21:04;9.33;;;5.87;;
1010;SDS011;494;48.744;10.106;2023-04-24T14:23:35;9.33;;;5.70;;
1010;SDS011;494;48.744;10.106;2023-04-24T14:26:04;9.73;;;2.80;;
1010;SDS011;494;48.744;10.106;2023-04-24T14:28:34;7.80;;;2.90;;
1010;SDS011;494;48.744;10.106;2023-04-24T14:31:05;9.93;;;5.30;;
1010;SDS011;494;48.744;10.106;2023-04-24T14:33:37;8.90;;;5.30;;
1010;SDS011;494;48.744;10.106;2023-04-24T14:36:06;9.87;;;4.20;;
1010;SDS011;494;48.744;10.106;2023-04-24T14:38:37;10.20;;;4.10;;
1010;SDS011;494;48.744;10.106;2023-04-24T14:41:07;8.80;;;3.87;;
1010;SDS011;494;48.744;10.106;2023-04-24T14:43:39;8.10;;;3.50;;
1010;SDS011;494;48.744;10.106;2023-04-24T14:46:09;7.93;;;3.30;;
1010;SDS011;494;48.744;10.106;2023-04-24T14:48:39;9.77;;;5.00;;
1010;SDS011;494;48.744;10.106;2023-04-24T14:51:08;8.73;;;4.47;;
1010;SDS011;494;48.744;10.106;2023-04-24T14:53:43;10.60;;;5.93;;
1010;SDS011;494;48.744;10.106;2023-04-24T14:56:21;9.10;;;5.10;;
1010;SDS011;494;48.744;10.106;2023-04-24T14:58:52;9.30;;;5.30;;
1010;SDS011;494;48.744;10.106;2023-04-24T15:01:22;9.43;;;5.87;;
1010;SDS011;494;48.744;10.106;2023-04-24T15:03:51;9.23;;;5.70;;
1010;SDS011;494;48.744;10.106;2023-04-24T15:06:21;10.03;;;5.67;;
1010;SDS011;494;48.744;10.106;2023-04-24T15:08:51;9.53;;;5.17;;
1010;SDS011;494;48.744;10.106;2023-04-24T15:11:23;9.37;;;5.07;;
1010;SDS011;494;48.744;10.106;2023-04-24T15:13:52;9.77;;;3.50;;
1010;SDS011;494;48.744;10.106;2023-04-24T15:16:24;9.10;;;3.20;;
1010;SDS011;494;48.744;10.106;2023-04-24T15:18:56;10.70;;;4.17;;
1010;SDS011;494;48.744;10.106;2023-04-24T15:21:26;9.83;;;3.97;;
1010;SDS011;494;48.744;10.106;2023-04-24T15:23:57;9.60;;;4.00;;
1010;SDS011;494;48.744;10.106;2023-04-24T15:26:28;9.90;;;3.53;;
1010;SDS011;494;48.744;10.106;2023-04-24T15:29:00;9.33;;;4.03;;
1010;SDS011;494;48.744;10.106;2023-04-24T15:31:31;8.40;;;3.47;;
1010;SDS011;494;48.744;10.106;2023-04-24T15:33:59;10.83;;;4.27;;
1010;SDS011;494;48.744;10.106;2023-04-24T15:36:29;8.70;;;3.40;;
1010;SDS011;494;48.744;10.106;2023-04-24T15:41:47;8.83;;;3.27;;
1010;SDS011;494;48.744;10.106;2023-04-24T15:44:18;8.77;;;3.47;;